createdAt,value
2023-03-24T00:00:21.882Z,2.53
2023-03-24T00:05:46.448Z,2.37
2023-03-24T00:11:11.779Z,2.70
2023-03-24T00:16:34.989Z,2.90
2023-03-24T00:21:57.425Z,2.43
2023-03-24T00:27:20.151Z,2.40
2023-03-24T00:32:43.162Z,2.40
2023-03-24T00:38:06.018Z,2.40
2023-03-24T00:43:29.791Z,2.77
2023-03-24T00:48:54.109Z,2.73
2023-03-24T00:54:16.487Z,2.50
2023-03-24T00:59:42.703Z,2.90
2023-03-24T01:05:05.592Z,2.70
2023-03-24T01:10:28.158Z,2.97
2023-03-24T01:15:51.255Z,2.90
2023-03-24T01:21:14.511Z,2.43
2023-03-24T01:26:36.919Z,2.60
2023-03-24T01:32:00.034Z,2.30
2023-03-24T01:37:23.605Z,2.40
2023-03-24T01:42:46.572Z,2.13
2023-03-24T01:48:26.951Z,2.43
2023-03-24T01:54:18.905Z,2.50
2023-03-24T01:59:46.984Z,2.30
2023-03-24T02:05:15.572Z,2.50
2023-03-24T02:10:40.545Z,2.90
2023-03-24T02:16:29.728Z,2.87
2023-03-24T02:21:55.065Z,2.80
2023-03-24T02:27:23.740Z,2.87
2023-03-24T02:32:46.147Z,2.53
2023-03-24T02:38:20.329Z,2.80
2023-03-24T02:43:55.627Z,2.80
2023-03-24T02:50:14.045Z,3.07
2023-03-24T02:55:46.235Z,2.80
2023-03-24T03:01:21.188Z,2.63
2023-03-24T03:07:00.113Z,2.80
2023-03-24T03:12:26.556Z,2.50
2023-03-24T03:17:58.940Z,2.73
2023-03-24T03:23:32.507Z,3.00
2023-03-24T03:29:00.238Z,3.27
2023-03-24T03:34:52.672Z,2.87
2023-03-24T03:40:26.130Z,2.70
2023-03-24T03:45:55.510Z,2.80
2023-03-24T03:51:24.109Z,2.70
2023-03-24T03:56:54.181Z,3.10
2023-03-24T04:02:35.384Z,2.90
2023-03-24T04:08:14.245Z,3.47
2023-03-24T04:14:08.373Z,3.50
2023-03-24T04:20:02.121Z,3.13
2023-03-24T04:25:42.467Z,3.50
2023-03-24T04:31:34.307Z,3.50
2023-03-24T04:37:04.328Z,3.73
2023-03-24T04:42:39.579Z,3.53
2023-03-24T04:48:05.458Z,4.10
2023-03-24T04:53:37.237Z,4.37
2023-03-24T04:58:59.685Z,3.97
2023-03-24T05:04:25.598Z,3.83
2023-03-24T05:09:48.794Z,4.47
2023-03-24T05:15:12.547Z,4.30
2023-03-24T05:20:36.336Z,4.00
2023-03-24T05:26:09.065Z,3.90
2023-03-24T05:31:45.269Z,4.40
2023-03-24T05:37:18.209Z,4.50
2023-03-24T05:42:45.394Z,4.70
2023-03-24T05:48:09.403Z,4.30
2023-03-24T05:54:01.158Z,4.50
2023-03-24T05:59:32.038Z,4.20
2023-03-24T06:05:13.443Z,4.63
2023-03-24T06:10:37.042Z,4.63
2023-03-24T06:16:03.096Z,4.07
2023-03-24T06:21:37.224Z,4.70
2023-03-24T06:27:02.605Z,4.10
2023-03-24T06:32:29.545Z,4.07
2023-03-24T06:37:52.130Z,3.57
2023-03-24T06:43:14.852Z,4.20
2023-03-24T06:48:39.259Z,3.77
2023-03-24T06:54:04.812Z,4.00
2023-03-24T06:59:28.471Z,4.03
2023-03-24T07:04:54.190Z,3.90
2023-03-24T07:10:36.497Z,4.30
2023-03-24T07:15:59.745Z,3.97
2023-03-24T07:21:22.051Z,3.67
2023-03-24T07:26:47.043Z,3.30
2023-03-24T07:32:19.032Z,3.20
2023-03-24T07:37:43.339Z,3.43
2023-03-24T07:43:08.037Z,3.37
2023-03-24T07:48:39.249Z,3.20
2023-03-24T07:54:01.665Z,3.10
2023-03-24T07:59:34.766Z,2.90
2023-03-24T08:05:05.992Z,3.33
2023-03-24T08:10:51.265Z,3.00
2023-03-24T08:16:13.907Z,3.13
2023-03-24T08:21:37.141Z,3.23
2023-03-24T08:27:02.999Z,2.70
2023-03-24T08:32:25.484Z,2.83
2023-03-24T08:37:47.798Z,3.03
2023-03-24T08:43:14.705Z,3.47
2023-03-24T08:48:39.620Z,3.33
2023-03-24T08:54:03.993Z,3.77
2023-03-24T08:59:29.271Z,3.10
2023-03-24T09:04:54.667Z,3.00
2023-03-24T09:10:17.519Z,3.23
2023-03-24T09:15:40.209Z,3.40
2023-03-24T09:21:06.431Z,3.30
2023-03-24T09:26:29.312Z,3.57
2023-03-24T09:31:53.740Z,3.33
2023-03-24T09:37:16.404Z,3.23
2023-03-24T09:42:41.513Z,3.17
2023-03-24T09:48:14.885Z,3.67
2023-03-24T09:54:05.107Z,3.53
2023-03-24T09:59:37.983Z,3.13
2023-03-24T10:05:01.030Z,3.67
2023-03-24T10:10:52.489Z,3.90
2023-03-24T10:16:49.151Z,3.50
2023-03-24T10:22:21.237Z,3.57
2023-03-24T10:27:57.971Z,3.50
2023-03-24T10:33:21.116Z,3.53
2023-03-24T10:38:45.131Z,3.27
2023-03-24T10:44:09.070Z,3.20
2023-03-24T10:49:31.736Z,3.47
2023-03-24T10:55:07.395Z,3.90
2023-03-24T11:00:32.574Z,3.70
2023-03-24T11:06:00.207Z,3.37
2023-03-24T11:11:32.113Z,3.40
2023-03-24T11:17:12.763Z,2.63
2023-03-24T11:22:36.012Z,2.30
2023-03-24T11:28:00.841Z,2.63
2023-03-24T11:33:35.624Z,2.40
2023-03-24T11:39:11.193Z,2.43
2023-03-24T11:44:39.349Z,2.30
2023-03-24T11:50:11.133Z,2.03
2023-03-24T11:55:40.653Z,2.33
2023-03-24T12:01:27.867Z,1.95
2023-03-24T12:07:22.468Z,2.28
2023-03-24T12:13:03.006Z,2.08
2023-03-24T12:18:39.281Z,2.30
2023-03-24T12:24:18.368Z,1.75
2023-03-24T12:29:59.565Z,2.17
2023-03-24T12:35:34.511Z,1.85
2023-03-24T12:41:09.066Z,2.22
2023-03-24T12:47:08.599Z,1.90
2023-03-24T12:53:08.549Z,2.00
2023-03-24T12:58:50.049Z,2.38
2023-03-24T13:04:25.707Z,2.28
2023-03-24T13:10:22.491Z,2.10
2023-03-24T13:15:54.031Z,2.40
2023-03-24T13:21:29.179Z,2.45
2023-03-24T13:27:09.090Z,2.45
2023-03-24T13:32:44.646Z,2.10
2023-03-24T13:38:23.877Z,2.33
2023-03-24T13:43:52.104Z,1.98
2023-03-24T13:49:18.868Z,2.53
2023-03-24T13:54:43.697Z,2.47
2023-03-24T14:00:12.264Z,3.03
2023-03-24T14:05:34.638Z,2.83
2023-03-24T14:10:57.143Z,3.67
2023-03-24T14:17:04.320Z,4.00
2023-03-24T14:22:48.170Z,4.07
2023-03-24T14:28:31.914Z,3.80
2023-03-24T14:33:54.301Z,3.40
2023-03-24T14:39:31.403Z,2.40
2023-03-24T14:44:54.608Z,2.33
2023-03-24T14:50:22.757Z,1.70
2023-03-24T14:55:47.690Z,1.70
2023-03-24T15:01:11.970Z,1.50
2023-03-24T15:06:44.923Z,2.50
2023-03-24T15:12:07.548Z,1.80
2023-03-24T15:17:29.900Z,1.90
2023-03-24T15:22:55.179Z,1.50
2023-03-24T15:28:29.057Z,1.77
2023-03-24T15:33:53.256Z,2.63
2023-03-24T15:39:20.921Z,2.40
2023-03-24T15:44:43.817Z,2.23
2023-03-24T15:50:07.020Z,1.77
2023-03-24T15:55:34.980Z,1.60
2023-03-24T16:01:02.933Z,1.60
2023-03-24T16:06:30.190Z,1.50
2023-03-24T16:11:52.777Z,1.50
2023-03-24T16:17:14.993Z,1.83
2023-03-24T16:22:37.416Z,1.80
2023-03-24T16:27:59.760Z,1.63
2023-03-24T16:33:22.626Z,1.73
2023-03-24T16:38:46.836Z,1.40
2023-03-24T16:44:09.159Z,1.90
2023-03-24T16:49:31.282Z,2.10
2023-03-24T16:54:54.613Z,2.30
2023-03-24T17:00:17.633Z,2.50
2023-03-24T17:05:51.393Z,2.03
2023-03-24T17:11:15.996Z,3.10
2023-03-24T17:16:43.727Z,2.87
2023-03-24T17:22:07.176Z,2.57
2023-03-24T17:27:29.414Z,6.00
2023-03-24T17:32:53.137Z,4.60
2023-03-24T17:38:16.765Z,4.17
2023-03-24T17:43:39.263Z,6.63
2023-03-24T17:49:01.680Z,13.97
2023-03-24T17:54:25.462Z,8.57
2023-03-24T17:59:47.955Z,13.10
2023-03-24T18:05:12.145Z,4.63
2023-03-24T18:10:36.424Z,3.30
2023-03-24T18:16:04.036Z,6.40
2023-03-24T18:21:32.945Z,8.63
2023-03-24T18:26:55.198Z,7.70
2023-03-24T18:32:17.809Z,6.80
2023-03-24T18:37:40.498Z,3.60
2023-03-24T18:43:02.695Z,3.93
2023-03-24T18:48:25.188Z,4.53
2023-03-24T18:53:50.738Z,4.07
2023-03-24T18:59:12.985Z,3.37
2023-03-24T19:04:36.298Z,3.10
2023-03-24T19:10:00.023Z,3.80
2023-03-24T19:15:24.866Z,4.23
2023-03-24T19:20:47.676Z,4.10
2023-03-24T19:26:10.104Z,3.90
2023-03-24T19:31:33.654Z,4.03
2023-03-24T19:36:56.758Z,4.00
2023-03-24T19:42:19.527Z,3.70
2023-03-24T19:47:43.566Z,4.30
2023-03-24T19:53:06.588Z,4.30
2023-03-24T19:58:28.987Z,4.50
2023-03-24T20:03:51.569Z,4.03
2023-03-24T20:09:14.213Z,3.43
2023-03-24T20:14:36.867Z,3.20
2023-03-24T20:19:59.560Z,3.20
2023-03-24T20:25:22.461Z,3.30
2023-03-24T20:30:46.104Z,3.03
2023-03-24T20:36:11.511Z,3.00
2023-03-24T20:41:34.268Z,3.03
2023-03-24T20:47:00.825Z,3.03
2023-03-24T20:52:24.458Z,3.40
2023-03-24T20:57:47.597Z,3.60
2023-03-24T21:03:10.915Z,3.57
2023-03-24T21:08:33.808Z,3.70
2023-03-24T21:13:56.170Z,3.33
2023-03-24T21:19:18.807Z,3.43
2023-03-24T21:24:42.347Z,3.80
2023-03-24T21:30:05.608Z,3.70
2023-03-24T21:35:28.215Z,3.07
2023-03-24T21:41:00.958Z,3.77
2023-03-24T21:46:26.405Z,3.73
2023-03-24T21:51:54.833Z,3.53
2023-03-24T21:57:17.946Z,3.60
2023-03-24T22:02:51.341Z,3.17
2023-03-24T22:08:13.824Z,3.57
2023-03-24T22:13:37.343Z,3.90
2023-03-24T22:19:01.627Z,3.67
2023-03-24T22:24:24.779Z,3.80
2023-03-24T22:29:47.751Z,4.03
2023-03-24T22:35:10.169Z,3.87
2023-03-24T22:40:33.788Z,3.87
2023-03-24T22:45:56.342Z,3.33
2023-03-24T22:51:20.943Z,3.97
2023-03-24T22:56:43.386Z,4.50
2023-03-24T23:02:09.920Z,3.37
2023-03-24T23:07:32.981Z,3.47
2023-03-24T23:12:55.400Z,3.00
2023-03-24T23:18:18.468Z,3.13
2023-03-24T23:23:41.487Z,3.47
2023-03-24T23:29:04.030Z,3.97
2023-03-24T23:34:26.750Z,3.73
2023-03-24T23:39:50.416Z,3.20
2023-03-24T23:45:15.817Z,3.57
2023-03-24T23:50:37.994Z,2.40
2023-03-24T23:56:06.812Z,2.40
